This is the latest recevied weather packets stored in our database for station/object SV7RNH. If no packets are shown the sender has not sent any weather packets the latest 1 day(s).
| Time | Temp. | Humidity | Pressure | Rain* | Wind** | Luminosity | Snow |
|---|---|---|---|---|---|---|---|
| 1778085304 | 21.11° C | 54% | 1015.5 hPa | 0 mm | - | - | - |
| 1778084104 | 22.22° C | 49% | 1015.4 hPa | 0 mm | - | - | - |
| 1778082604 | 23.33° C | 43% | 1015.5 hPa | 0 mm | - | - | - |
| 1778078404 | 26.11° C | 30% | 1015.8 hPa | 0 mm | - | - | - |
| 1778077204 | 26.67° C | 29% | 1015.8 hPa | 0 mm | - | - | - |
| 1778076304 | 27.78° C | 26% | 1015.8 hPa | 0 mm | - | - | - |
| 1778075104 | 28.33° C | 27% | 1015.9 hPa | 0 mm | - | - | - |
| 1778074204 | 28.33° C | 27% | 1015.8 hPa | 0 mm | - | - | - |
| 1778072104 | 28.33° C | 25% | 1016.2 hPa | 0 mm | - | - | - |
| 1778070904 | 28.89° C | 21% | 1016.3 hPa | 0 mm | - | - | - |
| 1778070004 | 28.89° C | 19% | 1016.4 hPa | 0 mm | - | - | - |
| 1778069704 | 28.33° C | 20% | 1016.5 hPa | 0 mm | - | - | - |
| 1778068804 | 28.33° C | 22% | 1016.6 hPa | 0 mm | - | - | - |
| 1778068204 | 27.78° C | 21% | 1016.7 hPa | 0 mm | - | - | - |
| 1778067604 | 27.22° C | 22% | 1016.7 hPa | 0 mm | - | - | - |
| 1778065504 | 27.78° C | 18% | 1017 hPa | 0 mm | - | - | - |
| 1778064604 | 27.78° C | 13% | 1016.8 hPa | 0 mm | - | - | - |
| 1778064304 | 27.78° C | 14% | 1016.9 hPa | 0 mm | - | - | - |
| 1778061904 | 27.78° C | 18% | 1017.2 hPa | 0 mm | - | - | - |
| 1778061004 | 28.33° C | 14% | 1017.4 hPa | 0 mm | - | - | - |
| 1778060104 | 27.78° C | 12% | 1017.3 hPa | 0 mm | - | - | - |
| 1778059804 | 27.78° C | 12% | 1017.4 hPa | 0 mm | - | - | - |
| 1778058904 | 27.22° C | 18% | 1017.4 hPa | 0 mm | - | - | - |
| 1778057704 | 26.67° C | 22% | 1017.3 hPa | 0 mm | - | - | - |
| 1778056504 | 25.56° C | 31% | 1017.3 hPa | 0 mm | - | - | - |
* Rain latest hour (hover to see other rain measurements)
** Current wind speed in m/s (hover to see current wind gust speed)